Terminal Aerodrome Forecast
Issued by NWS

Home | Current Version | Previous Version | Text Only | Print | Product List | Glossary On
Versions: 1 2 3 4 5 6 7 8 9 10 11 12 13 14 15 16 17 18 19 20
950
FTUS45 KRIW 230526
TAFCPR
TAF
KCPR 230526Z 2306/2406 VRB06KT P6SM BKN100
     FM231100 36007KT P6SM SCT013 BKN050
     FM231800 01012G20KT P6SM -RA OVC012
     FM240000 36011KT 2SM -SN OVC012=

USA.gov is the U.S. government's official web portal to all federal, state and local government web resources and services.